Time;durP1;ratioP1;P1;durP2;ratioP2;P2;SDS_P1;SDS_P2;PMS_P1;PMS_P2;Temp;Humidity;BMP_temperature;BMP_pressure;BME280_temperature;BME280_humidity;BME280_pressure;Samples;Min_cycle;Max_cycle;Signal;HPM_P1;HPM_P2
2024/03/06 00:02:11;;;;;;;1.65;0.20;;;;;;;;;;5111373;28;20065;-82
2024/03/06 00:04:37;;;;;;;0.10;0.10;;;;;;;;;;5111156;28;20482;-82
2024/03/06 00:07:03;;;;;;;0.20;0.20;;;;;;;;;;5094348;28;20070;-82
2024/03/06 00:09:29;;;;;;;2.50;0.43;;;;;;;;;;5111031;28;20046;-82
2024/03/06 00:11:56;;;;;;;0.13;0.13;;;;;;;;;;5112421;28;20118;-82
2024/03/06 00:14:22;;;;;;;0.17;0.17;;;;;;;;;;5077396;28;20081;-82
2024/03/06 00:16:51;;;;;;;0.38;0.38;;;;;;;;;;5094253;28;20044;-83
2024/03/06 00:19:18;;;;;;;0.20;0.20;;;;;;;;;;5093919;28;20042;-81
2024/03/06 00:21:44;;;;;;;0.10;0.10;;;;;;;;;;5093736;28;20131;-82
2024/03/06 00:24:12;;;;;;;0.20;0.20;;;;;;;;;;5094067;28;20071;-82
2024/03/06 00:26:40;;;;;;;0.10;0.10;;;;;;;;;;5093847;28;20118;-82
2024/03/06 00:29:06;;;;;;;0.17;0.17;;;;;;;;;;5112146;28;20039;-83
2024/03/06 00:31:32;;;;;;;0.40;0.40;;;;;;;;;;5110661;28;20135;-82
2024/03/06 00:33:58;;;;;;;0.10;0.10;;;;;;;;;;5110630;28;20031;-83
2024/03/06 00:36:24;;;;;;;0.10;0.10;;;;;;;;;;5110935;28;20517;-84
2024/03/06 00:38:50;;;;;;;0.20;0.20;;;;;;;;;;5093602;28;20043;-82
2024/03/06 00:41:16;;;;;;;0.20;0.20;;;;;;;;;;5110547;28;20051;-82
2024/03/06 00:43:42;;;;;;;0.10;0.10;;;;;;;;;;5110766;28;20079;-83
2024/03/06 00:46:08;;;;;;;0.10;0.10;;;;;;;;;;5111836;28;20127;-82
2024/03/06 00:48:34;;;;;;;0.10;0.10;;;;;;;;;;5110477;28;20062;-81
2024/03/06 00:51:00;;;;;;;0.20;0.20;;;;;;;;;;5093351;28;20043;-83
2024/03/06 00:53:26;;;;;;;0.10;0.10;;;;;;;;;;5093697;28;20390;-83
2024/03/06 00:55:52;;;;;;;0.20;0.20;;;;;;;;;;5110466;28;20042;-82
2024/03/06 00:58:18;;;;;;;0.28;0.28;;;;;;;;;;5093480;28;20035;-82
2024/03/06 01:00:44;;;;;;;2.65;0.25;;;;;;;;;;5093321;28;20053;-82
2024/03/06 01:03:11;;;;;;;0.20;0.20;;;;;;;;;;5055510;28;1093441;-82
2024/03/06 01:05:37;;;;;;;0.10;0.10;;;;;;;;;;5077522;28;20052;-82
2024/03/06 01:08:03;;;;;;;0.25;0.25;;;;;;;;;;5095526;28;20548;-82
2024/03/06 01:10:29;;;;;;;0.20;0.20;;;;;;;;;;5098475;28;20040;-81
2024/03/06 01:12:55;;;;;;;0.10;0.10;;;;;;;;;;5098714;28;20123;-82
2024/03/06 01:15:21;;;;;;;0.10;0.10;;;;;;;;;;5115231;28;20495;-81
2024/03/06 01:17:47;;;;;;;0.40;0.40;;;;;;;;;;5115121;28;20088;-82
2024/03/06 01:20:13;;;;;;;0.20;0.20;;;;;;;;;;5081283;28;20071;-83
2024/03/06 01:22:39;;;;;;;0.10;0.10;;;;;;;;;;5115050;28;20039;-83
2024/03/06 01:25:07;;;;;;;0.10;0.10;;;;;;;;;;5098031;28;20495;-82
2024/03/06 01:27:33;;;;;;;0.35;0.10;;;;;;;;;;5081296;28;20044;-83
2024/03/06 01:29:59;;;;;;;0.20;0.20;;;;;;;;;;5114891;28;20048;-82
2024/03/06 01:32:25;;;;;;;0.10;0.10;;;;;;;;;;5115210;28;20034;-82
2024/03/06 01:34:51;;;;;;;0.13;0.13;;;;;;;;;;5115120;28;20041;-83
2024/03/06 01:37:17;;;;;;;0.10;0.10;;;;;;;;;;5097981;28;20035;-83
2024/03/06 01:39:43;;;;;;;0.25;0.25;;;;;;;;;;5097779;28;20034;-82
2024/03/06 01:42:09;;;;;;;0.10;0.10;;;;;;;;;;5114959;28;20146;-84
2024/03/06 01:44:35;;;;;;;0.10;0.10;;;;;;;;;;5097568;28;20039;-84
2024/03/06 01:47:01;;;;;;;0.10;0.10;;;;;;;;;;5114971;28;20047;-84
2024/03/06 01:49:27;;;;;;;0.20;0.20;;;;;;;;;;5114705;28;20376;-82
2024/03/06 01:51:53;;;;;;;0.47;0.47;;;;;;;;;;5114724;28;20138;-81
2024/03/06 01:54:19;;;;;;;0.10;0.10;;;;;;;;;;5097542;28;20167;-83
2024/03/06 01:56:46;;;;;;;0.30;0.30;;;;;;;;;;5114497;28;20429;-83
2024/03/06 01:59:12;;;;;;;0.20;0.20;;;;;;;;;;5097544;28;20031;-83
2024/03/06 02:01:38;;;;;;;0.10;0.10;;;;;;;;;;5097226;28;20055;-82
2024/03/06 02:04:04;;;;;;;0.25;0.25;;;;;;;;;;5080844;28;20443;-82
2024/03/06 02:06:30;;;;;;;0.20;0.20;;;;;;;;;;5114356;28;20047;-82
2024/03/06 02:08:56;;;;;;;0.38;0.38;;;;;;;;;;5097267;28;20135;-82
2024/03/06 02:11:22;;;;;;;0.32;0.22;;;;;;;;;;5080189;28;20138;-82
2024/03/06 02:13:50;;;;;;;0.15;0.15;;;;;;;;;;5114020;28;20558;-83
2024/03/06 02:16:16;;;;;;;2.67;0.73;;;;;;;;;;5097199;28;20486;-87
2024/03/06 02:18:54;;;;;;;0.20;0.20;;;;;;;;;;5096792;28;20035;-83
2024/03/06 02:21:23;;;;;;;0.10;0.10;;;;;;;;;;5113927;28;20096;-82
2024/03/06 02:23:52;;;;;;;0.10;0.10;;;;;;;;;;5080203;28;20561;-83
2024/03/06 02:26:19;;;;;;;0.17;0.17;;;;;;;;;;5113724;28;20500;-83
2024/03/06 02:28:49;;;;;;;0.10;0.10;;;;;;;;;;5096959;28;20463;-83
2024/03/06 02:31:15;;;;;;;0.10;0.10;;;;;;;;;;5096861;28;20036;-83
2024/03/06 02:33:41;;;;;;;0.20;0.20;;;;;;;;;;5096796;28;20039;-82
2024/03/06 02:36:07;;;;;;;0.28;0.28;;;;;;;;;;5096755;28;20042;-82
2024/03/06 02:38:35;;;;;;;0.20;0.20;;;;;;;;;;5096823;28;20050;-83
2024/03/06 02:41:01;;;;;;;0.10;0.10;;;;;;;;;;5097099;28;20075;-82
2024/03/06 02:43:27;;;;;;;0.10;0.10;;;;;;;;;;5096766;28;20126;-83
2024/03/06 02:45:53;;;;;;;0.10;0.10;;;;;;;;;;5096719;28;20130;-83
2024/03/06 02:48:19;;;;;;;0.38;0.13;;;;;;;;;;5079615;28;20040;-82
2024/03/06 02:50:45;;;;;;;0.10;0.10;;;;;;;;;;5113412;28;20475;-81
2024/03/06 02:53:12;;;;;;;0.10;0.10;;;;;;;;;;5096386;28;20071;-82
2024/03/06 02:55:38;;;;;;;0.10;0.10;;;;;;;;;;5096338;28;20088;-83
2024/03/06 02:58:04;;;;;;;0.20;0.20;;;;;;;;;;5096394;28;20126;-83
2024/03/06 03:00:31;;;;;;;0.10;0.10;;;;;;;;;;5096082;28;20047;-84
2024/03/06 03:02:57;;;;;;;0.20;0.20;;;;;;;;;;5096229;28;20056;-82
2024/03/06 03:05:23;;;;;;;0.30;0.30;;;;;;;;;;5113032;28;20503;-82
2024/03/06 03:07:50;;;;;;;0.10;0.10;;;;;;;;;;5096105;28;20058;-82
2024/03/06 03:10:16;;;;;;;0.10;0.10;;;;;;;;;;5095696;28;20517;-82
2024/03/06 03:12:42;;;;;;;0.10;0.10;;;;;;;;;;5079131;28;20035;-83
2024/03/06 03:15:08;;;;;;;0.10;0.10;;;;;;;;;;5096183;28;20047;-83
2024/03/06 03:17:34;;;;;;;0.30;0.20;;;;;;;;;;5112995;28;20487;-83
2024/03/06 03:20:05;;;;;;;0.10;0.10;;;;;;;;;;5112747;28;20046;-82
2024/03/06 03:22:35;;;;;;;0.10;0.10;;;;;;;;;;5113046;28;20119;-82
2024/03/06 03:25:01;;;;;;;0.10;0.10;;;;;;;;;;5095851;28;20047;-82
2024/03/06 03:27:27;;;;;;;0.10;0.10;;;;;;;;;;5095829;28;20046;-82
2024/03/06 03:29:53;;;;;;;0.10;0.10;;;;;;;;;;5095562;28;20130;-83
2024/03/06 03:32:19;;;;;;;0.10;0.10;;;;;;;;;;5113347;28;20407;-82
2024/03/06 03:34:45;;;;;;;0.10;0.10;;;;;;;;;;5095599;28;20479;-82
2024/03/06 03:37:13;;;;;;;0.10;0.10;;;;;;;;;;5112451;28;20044;-82
2024/03/06 03:39:39;;;;;;;0.10;0.10;;;;;;;;;;5112474;28;20036;-82
2024/03/06 03:42:06;;;;;;;0.10;0.10;;;;;;;;;;5095575;28;20061;-82
2024/03/06 03:44:32;;;;;;;0.45;0.20;;;;;;;;;;5095645;28;20517;-82
2024/03/06 03:46:58;;;;;;;0.10;0.10;;;;;;;;;;5095656;28;20348;-83
2024/03/06 03:49:24;;;;;;;0.10;0.10;;;;;;;;;;5112233;28;20040;-83
2024/03/06 03:51:50;;;;;;;0.10;0.10;;;;;;;;;;5095061;28;20044;-83
2024/03/06 03:54:16;;;;;;;0.10;0.10;;;;;;;;;;5112138;28;20122;-83
2024/03/06 03:56:42;;;;;;;0.10;0.10;;;;;;;;;;5112213;28;20043;-83
2024/03/06 03:59:08;;;;;;;0.10;0.10;;;;;;;;;;5095345;28;20032;-83
2024/03/06 04:01:34;;;;;;;0.90;0.40;;;;;;;;;;5094848;28;20403;-83
2024/03/06 04:04:00;;;;;;;0.10;0.10;;;;;;;;;;5112095;28;20043;-82
2024/03/06 04:06:26;;;;;;;0.10;0.10;;;;;;;;;;5094889;28;20040;-83
2024/03/06 04:08:52;;;;;;;0.28;0.28;;;;;;;;;;5078215;28;20467;-83
2024/03/06 04:11:18;;;;;;;0.25;0.25;;;;;;;;;;5094841;28;20089;-83
2024/03/06 04:13:46;;;;;;;0.20;0.20;;;;;;;;;;5111836;28;20490;-83
2024/03/06 04:16:16;;;;;;;0.20;0.20;;;;;;;;;;5111985;28;20371;-82
2024/03/06 04:18:42;;;;;;;0.20;0.20;;;;;;;;;;5111694;28;20085;-82
2024/03/06 04:21:09;;;;;;;0.10;0.10;;;;;;;;;;5111845;28;20043;-83
2024/03/06 04:23:35;;;;;;;0.55;0.55;;;;;;;;;;5111970;28;20138;-83
2024/03/06 04:26:01;;;;;;;0.10;0.10;;;;;;;;;;5111870;28;20407;-83
2024/03/06 04:28:28;;;;;;;0.35;0.35;;;;;;;;;;5111721;28;20112;-81
2024/03/06 04:30:54;;;;;;;0.20;0.20;;;;;;;;;;5094554;28;20050;-83
2024/03/06 04:33:20;;;;;;;0.10;0.10;;;;;;;;;;5094427;28;20035;-83
2024/03/06 04:35:46;;;;;;;0.10;0.10;;;;;;;;;;5111423;28;20122;-81
2024/03/06 04:38:12;;;;;;;0.20;0.20;;;;;;;;;;5094596;28;20399;-83
2024/03/06 04:40:38;;;;;;;0.20;0.20;;;;;;;;;;5094548;28;20039;-82
2024/03/06 04:43:04;;;;;;;0.20;0.20;;;;;;;;;;5094232;28;20130;-83
2024/03/06 04:45:30;;;;;;;0.15;0.15;;;;;;;;;;5111245;28;20055;-82
2024/03/06 04:47:56;;;;;;;0.20;0.20;;;;;;;;;;5111965;28;20043;-81
2024/03/06 04:50:22;;;;;;;0.30;0.30;;;;;;;;;;5110996;28;20437;-82
2024/03/06 04:52:48;;;;;;;0.10;0.10;;;;;;;;;;5111101;28;20044;-82
2024/03/06 04:55:15;;;;;;;5.25;0.45;;;;;;;;;;5112390;28;20039;-82
2024/03/06 04:57:44;;;;;;;1.25;0.43;;;;;;;;;;5111646;28;20479;-82
2024/03/06 05:00:10;;;;;;;0.20;0.20;;;;;;;;;;5094481;28;20043;-83
2024/03/06 05:02:37;;;;;;;0.10;0.10;;;;;;;;;;5077337;28;20052;-83
2024/03/06 05:05:03;;;;;;;0.45;0.20;;;;;;;;;;5094545;28;20333;-82
2024/03/06 05:07:30;;;;;;;0.28;0.20;;;;;;;;;;5094139;28;20039;-82
2024/03/06 05:09:57;;;;;;;0.20;0.20;;;;;;;;;;5111005;28;20574;-82
2024/03/06 05:12:23;;;;;;;0.20;0.20;;;;;;;;;;5111344;28;20047;-82
2024/03/06 05:14:49;;;;;;;0.10;0.10;;;;;;;;;;5094424;28;20035;-82
2024/03/06 05:17:15;;;;;;;0.10;0.10;;;;;;;;;;5094072;28;20043;-83
2024/03/06 05:19:42;;;;;;;0.52;0.52;;;;;;;;;;5094173;28;20122;-82
2024/03/06 05:22:08;;;;;;;0.10;0.10;;;;;;;;;;5093951;28;20043;-82
2024/03/06 05:24:34;;;;;;;0.17;0.17;;;;;;;;;;5111207;28;20040;-82
2024/03/06 05:27:00;;;;;;;0.40;0.40;;;;;;;;;;5094032;28;20047;-82
2024/03/06 05:29:26;;;;;;;0.10;0.10;;;;;;;;;;5110900;28;20035;-81
2024/03/06 05:31:52;;;;;;;0.10;0.10;;;;;;;;;;5093713;28;20485;-82
2024/03/06 05:34:18;;;;;;;0.30;0.20;;;;;;;;;;5094015;28;20071;-82
2024/03/06 05:36:44;;;;;;;0.20;0.20;;;;;;;;;;5111004;28;20123;-82
2024/03/06 05:39:12;;;;;;;0.10;0.10;;;;;;;;;;5110901;28;20040;-83
2024/03/06 05:41:41;;;;;;;0.10;0.10;;;;;;;;;;5094316;28;20072;-82
2024/03/06 05:44:08;;;;;;;0.10;0.10;;;;;;;;;;5110775;28;20413;-82
2024/03/06 05:46:34;;;;;;;0.45;0.45;;;;;;;;;;5093777;28;20047;-82
2024/03/06 05:49:01;;;;;;;0.10;0.10;;;;;;;;;;5110801;28;20040;-82
2024/03/06 05:51:27;;;;;;;0.10;0.10;;;;;;;;;;5093963;28;20035;-82
2024/03/06 05:53:53;;;;;;;1.35;0.40;;;;;;;;;;5094526;28;20055;-82
2024/03/06 05:56:19;;;;;;;0.30;0.22;;;;;;;;;;5097599;28;20370;-82
2024/03/06 05:58:46;;;;;;;0.47;0.30;;;;;;;;;;5080543;28;20048;-82
2024/03/06 06:01:19;;;;;;;0.17;0.17;;;;;;;;;;5114277;28;20054;-82
2024/03/06 06:03:46;;;;;;;0.20;0.20;;;;;;;;;;5097896;28;20445;-82
2024/03/06 06:06:12;;;;;;;0.20;0.20;;;;;;;;;;5097399;28;20557;-82
2024/03/06 06:08:38;;;;;;;0.10;0.10;;;;;;;;;;5097182;28;20036;-83
2024/03/06 06:11:04;;;;;;;0.10;0.10;;;;;;;;;;5097464;28;20420;-82
2024/03/06 06:13:30;;;;;;;0.20;0.20;;;;;;;;;;5097153;28;20214;-82
2024/03/06 06:15:58;;;;;;;1.15;0.17;;;;;;;;;;5097357;28;20355;-82
2024/03/06 06:18:24;;;;;;;0.10;0.10;;;;;;;;;;5080203;28;20218;-83
2024/03/06 06:20:50;;;;;;;0.35;0.20;;;;;;;;;;5097043;28;20103;-83
2024/03/06 06:23:16;;;;;;;0.20;0.20;;;;;;;;;;5115310;28;20509;-82
2024/03/06 06:25:42;;;;;;;0.10;0.10;;;;;;;;;;5113992;28;20035;-83
2024/03/06 06:28:10;;;;;;;0.10;0.10;;;;;;;;;;5096851;28;20051;-81
2024/03/06 06:30:36;;;;;;;0.10;0.10;;;;;;;;;;5113683;28;20039;-82
2024/03/06 06:33:02;;;;;;;0.35;0.35;;;;;;;;;;5113731;28;20043;-82
2024/03/06 06:35:28;;;;;;;0.10;0.10;;;;;;;;;;5114986;28;20044;-82
2024/03/06 06:37:54;;;;;;;0.40;0.40;;;;;;;;;;5114998;28;20076;-82
2024/03/06 06:40:20;;;;;;;0.10;0.10;;;;;;;;;;5113801;28;20043;-82
2024/03/06 06:42:49;;;;;;;0.10;0.10;;;;;;;;;;5096857;28;20047;-82
2024/03/06 06:45:15;;;;;;;0.10;0.10;;;;;;;;;;5096943;28;20367;-82
2024/03/06 06:47:41;;;;;;;0.10;0.10;;;;;;;;;;5113483;28;20036;-82
2024/03/06 06:50:08;;;;;;;0.20;0.20;;;;;;;;;;5096451;28;20085;-83
2024/03/06 06:52:35;;;;;;;0.10;0.10;;;;;;;;;;5080065;28;20036;-84
2024/03/06 06:55:01;;;;;;;0.10;0.10;;;;;;;;;;5113301;28;20144;-83
2024/03/06 06:57:27;;;;;;;0.10;0.10;;;;;;;;;;5096435;28;20048;-83
2024/03/06 06:59:53;;;;;;;0.20;0.20;;;;;;;;;;5079447;28;20039;-83
2024/03/06 07:02:19;;;;;;;0.13;0.13;;;;;;;;;;5113040;28;20051;-83
2024/03/06 07:04:48;;;;;;;3.30;0.30;;;;;;;;;;5079602;28;20061;-83
2024/03/06 07:07:14;;;;;;;0.20;0.20;;;;;;;;;;5078818;28;20048;-83
2024/03/06 07:09:40;;;;;;;0.20;0.20;;;;;;;;;;5096292;28;20075;-84
2024/03/06 07:12:07;;;;;;;0.15;0.15;;;;;;;;;;5095974;28;20494;-83
2024/03/06 07:14:33;;;;;;;0.28;0.28;;;;;;;;;;5096275;28;20483;-83
2024/03/06 07:16:59;;;;;;;0.13;0.13;;;;;;;;;;5095978;28;20039;-84
2024/03/06 07:19:25;;;;;;;0.32;0.20;;;;;;;;;;5096160;28;20138;-83
2024/03/06 07:21:51;;;;;;;0.40;0.40;;;;;;;;;;5112716;28;20071;-82
2024/03/06 07:24:18;;;;;;;0.20;0.20;;;;;;;;;;5096069;28;20027;-82
2024/03/06 07:26:44;;;;;;;0.20;0.20;;;;;;;;;;5095773;28;20043;-83
2024/03/06 07:29:14;;;;;;;0.20;0.20;;;;;;;;;;5114152;28;20099;-83
2024/03/06 07:31:47;;;;;;;0.20;0.20;;;;;;;;;;5112749;28;20370;-83
2024/03/06 07:34:14;;;;;;;0.20;0.20;;;;;;;;;;5112664;28;20110;-83
2024/03/06 07:36:40;;;;;;;0.20;0.20;;;;;;;;;;5112384;28;20047;-83
2024/03/06 07:39:07;;;;;;;0.20;0.20;;;;;;;;;;5079031;28;20237;-82
2024/03/06 07:41:33;;;;;;;0.20;0.20;;;;;;;;;;5112433;28;20118;-84
2024/03/06 07:44:00;;;;;;;0.20;0.20;;;;;;;;;;5078681;28;20050;-83
2024/03/06 07:46:26;;;;;;;0.20;0.20;;;;;;;;;;5078610;28;20044;-83
2024/03/06 07:48:52;;;;;;;0.20;0.20;;;;;;;;;;5078576;28;20050;-84
2024/03/06 07:51:18;;;;;;;0.10;0.10;;;;;;;;;;5095287;28;20036;-83
2024/03/06 07:53:44;;;;;;;0.40;0.40;;;;;;;;;;5095391;28;20475;-83
2024/03/06 07:56:13;;;;;;;0.20;0.20;;;;;;;;;;5095247;28;20039;-83
2024/03/06 07:58:39;;;;;;;0.10;0.10;;;;;;;;;;5095373;28;20094;-81
2024/03/06 08:01:07;;;;;;;0.17;0.17;;;;;;;;;;5112025;28;20074;-82
2024/03/06 08:03:33;;;;;;;0.10;0.10;;;;;;;;;;5112113;28;20044;-81
2024/03/06 08:06:00;;;;;;;0.43;0.43;;;;;;;;;;5112143;28;20051;-82
2024/03/06 08:08:26;;;;;;;0.10;0.10;;;;;;;;;;5076856;28;20141;-81
2024/03/06 08:10:52;;;;;;;0.10;0.10;;;;;;;;;;5094828;28;20059;-81
2024/03/06 08:13:21;;;;;;;0.20;0.20;;;;;;;;;;5112965;28;20038;-81
2024/03/06 08:15:47;;;;;;;0.10;0.10;;;;;;;;;;5094211;28;20118;-80
2024/03/06 08:18:14;;;;;;;0.20;0.20;;;;;;;;;;5093581;28;20024;-79
2024/03/06 08:20:40;;;;;;;0.40;0.40;;;;;;;;;;5078143;28;20047;-81
2024/03/06 08:23:07;;;;;;;0.10;0.10;;;;;;;;;;5094966;28;20098;-81
2024/03/06 08:25:33;;;;;;;0.22;0.20;;;;;;;;;;5111382;28;20051;-81
2024/03/06 08:27:59;;;;;;;0.10;0.10;;;;;;;;;;5111580;28;20042;-81
2024/03/06 08:30:25;;;;;;;0.15;0.15;;;;;;;;;;5111344;28;20039;-81
2024/03/06 08:32:52;;;;;;;0.10;0.10;;;;;;;;;;5111688;28;20071;-81
2024/03/06 08:35:21;;;;;;;0.13;0.13;;;;;;;;;;5111534;28;20052;-81
2024/03/06 08:37:47;;;;;;;0.10;0.10;;;;;;;;;;5111580;28;20389;-79
2024/03/06 08:40:17;;;;;;;0.32;0.15;;;;;;;;;;5094324;28;20118;-80
2024/03/06 08:42:43;;;;;;;0.10;0.10;;;;;;;;;;5111634;28;20356;-81
2024/03/06 08:45:10;;;;;;;0.10;0.10;;;;;;;;;;5110804;28;20214;-81
2024/03/06 08:47:36;;;;;;;0.10;0.10;;;;;;;;;;5093954;28;20075;-82
2024/03/06 08:50:02;;;;;;;0.10;0.10;;;;;;;;;;5110813;28;20047;-80
2024/03/06 08:52:30;;;;;;;0.10;0.10;;;;;;;;;;5093581;28;20043;-81
2024/03/06 08:54:56;;;;;;;0.10;0.10;;;;;;;;;;5076653;28;20565;-81
2024/03/06 08:57:23;;;;;;;0.20;0.20;;;;;;;;;;5094011;28;20424;-79
2024/03/06 08:59:49;;;;;;;0.20;0.20;;;;;;;;;;5093940;28;20074;-81
2024/03/06 09:02:17;;;;;;;0.10;0.10;;;;;;;;;;5093872;28;20055;-81
2024/03/06 09:04:43;;;;;;;0.90;0.30;;;;;;;;;;5110614;28;20379;-81
2024/03/06 09:07:09;;;;;;;0.38;0.38;;;;;;;;;;5109454;28;20043;-81
2024/03/06 09:09:36;;;;;;;0.28;0.28;;;;;;;;;;5092600;28;20044;-81
2024/03/06 09:12:04;;;;;;;0.60;0.50;;;;;;;;;;5107793;28;20370;-82
2024/03/06 09:14:31;;;;;;;0.10;0.10;;;;;;;;;;5095828;28;20444;-81
2024/03/06 09:16:57;;;;;;;0.50;0.47;;;;;;;;;;5110198;28;20123;-80
2024/03/06 09:19:23;;;;;;;0.10;0.10;;;;;;;;;;5093643;28;20035;-82
2024/03/06 09:21:50;;;;;;;0.10;0.10;;;;;;;;;;5089931;28;20051;-81
2024/03/06 09:24:16;;;;;;;0.20;0.20;;;;;;;;;;5091736;28;20104;-81
2024/03/06 09:26:42;;;;;;;0.50;0.50;;;;;;;;;;5073248;28;20075;-81
2024/03/06 09:29:08;;;;;;;0.57;0.57;;;;;;;;;;5094452;28;20135;-79
2024/03/06 09:31:34;;;;;;;0.17;0.17;;;;;;;;;;5114725;28;20487;-79
2024/03/06 09:34:00;;;;;;;0.20;0.20;;;;;;;;;;5096556;28;20042;-83
2024/03/06 09:36:26;;;;;;;0.22;0.22;;;;;;;;;;5097215;28;20053;-82
2024/03/06 09:38:52;;;;;;;0.10;0.10;;;;;;;;;;5097355;28;20478;-82
2024/03/06 09:41:18;;;;;;;0.10;0.10;;;;;;;;;;5097661;28;20108;-83
2024/03/06 09:43:45;;;;;;;0.20;0.20;;;;;;;;;;5098054;28;20055;-83
2024/03/06 09:46:11;;;;;;;0.40;0.40;;;;;;;;;;5097815;28;20088;-83
2024/03/06 09:48:37;;;;;;;0.10;0.10;;;;;;;;;;5097652;28;20126;-83
2024/03/06 09:51:04;;;;;;;0.28;0.28;;;;;;;;;;5095717;28;20478;-83
2024/03/06 09:53:30;;;;;;;0.43;0.43;;;;;;;;;;5112817;28;20038;-83
2024/03/06 09:55:57;;;;;;;0.30;0.30;;;;;;;;;;5094345;28;20048;-83
2024/03/06 09:58:23;;;;;;;0.20;0.20;;;;;;;;;;5114345;28;20039;-81
2024/03/06 10:00:51;;;;;;;0.75;0.70;;;;;;;;;;5095419;28;20058;-83
2024/03/06 10:03:17;;;;;;;0.52;0.52;;;;;;;;;;5114133;28;20047;-83
2024/03/06 10:05:43;;;;;;;0.13;0.13;;;;;;;;;;5088484;28;20043;-83
2024/03/06 10:08:09;;;;;;;0.28;0.28;;;;;;;;;;5097371;28;20039;-84
2024/03/06 10:10:36;;;;;;;0.30;0.30;;;;;;;;;;5112045;28;20040;-84
2024/03/06 10:13:02;;;;;;;8.55;0.57;;;;;;;;;;5110817;28;20482;-84
2024/03/06 10:15:29;;;;;;;0.70;0.30;;;;;;;;;;5114524;28;20558;-84
2024/03/06 10:18:11;;;;;;;0.43;0.40;;;;;;;;;;5092686;28;20035;-84
2024/03/06 10:20:37;;;;;;;;;;;;;;;;;;5112777;28;20043;-84
2024/03/06 10:23:04;;;;;;;0.15;0.15;;;;;;;;;;5110254;28;19920;-85
2024/03/06 10:25:30;;;;;;;0.20;0.20;;;;;;;;;;5114044;28;20043;-85
2024/03/06 10:28:09;;;;;;;0.10;0.10;;;;;;;;;;5075812;28;20427;-84
2024/03/06 10:30:35;;;;;;;0.40;0.40;;;;;;;;;;5101911;28;20383;-85
2024/03/06 10:33:02;;;;;;;0.10;0.10;;;;;;;;;;5096944;28;20115;-86
2024/03/06 10:35:28;;;;;;;0.17;0.17;;;;;;;;;;5096734;28;20081;-85
2024/03/06 10:37:55;;;;;;;0.30;0.30;;;;;;;;;;5112137;28;20048;-85
2024/03/06 10:40:21;;;;;;;0.28;0.28;;;;;;;;;;5096455;28;20491;-84
2024/03/06 10:42:47;;;;;;;0.57;0.57;;;;;;;;;;5112145;28;20171;-84
2024/03/06 10:45:15;;;;;;;0.20;0.20;;;;;;;;;;5111898;28;20982;-83
2024/03/06 10:47:45;;;;;;;0.10;0.10;;;;;;;;;;5113455;28;20051;-82
2024/03/06 10:50:11;;;;;;;0.10;0.10;;;;;;;;;;5097318;28;20048;-83
2024/03/06 10:52:37;;;;;;;0.10;0.10;;;;;;;;;;5096625;28;20062;-82
2024/03/06 10:55:04;;;;;;;0.10;0.10;;;;;;;;;;5113346;28;20031;-82
2024/03/06 10:57:30;;;;;;;0.25;0.25;;;;;;;;;;5113758;28;20035;-82
2024/03/06 10:59:59;;;;;;;1.35;0.47;;;;;;;;;;5113438;28;20043;-81
2024/03/06 11:02:25;;;;;;;0.30;0.30;;;;;;;;;;5112488;28;20043;-82
2024/03/06 11:04:51;;;;;;;0.10;0.10;;;;;;;;;;5096144;28;20051;-82
2024/03/06 11:07:17;;;;;;;0.65;0.65;;;;;;;;;;5092548;28;20039;-82
2024/03/06 11:09:43;;;;;;;0.20;0.20;;;;;;;;;;5111996;28;20035;-81
2024/03/06 11:12:09;;;;;;;0.10;0.10;;;;;;;;;;5094575;28;20043;-81
2024/03/06 11:14:39;;;;;;;1.55;0.45;;;;;;;;;;5112112;28;20432;-81
2024/03/06 11:17:11;;;;;;;0.17;0.17;;;;;;;;;;5110944;28;20478;-83
2024/03/06 11:20:06;;;;;;;0.43;0.43;;;;;;;;;;5112954;28;20044;-83
2024/03/06 11:22:50;;;;;;;0.20;0.20;;;;;;;;;;5088371;28;20056;-83
2024/03/06 11:25:35;;;;;;;0.20;0.20;;;;;;;;;;5110668;28;20453;-82
2024/03/06 11:28:05;;;;;;;0.10;0.10;;;;;;;;;;5114021;28;20035;-83
2024/03/06 11:30:31;;;;;;;0.10;0.10;;;;;;;;;;5096082;28;20188;-83
2024/03/06 11:33:00;;;;;;;0.20;0.20;;;;;;;;;;5094392;28;20039;-81
2024/03/06 11:35:29;;;;;;;0.28;0.28;;;;;;;;;;5095655;28;20040;-80
2024/03/06 11:37:55;;;;;;;1.23;0.25;;;;;;;;;;5111002;28;20050;-82
2024/03/06 11:40:26;;;;;;;0.10;0.10;;;;;;;;;;5110876;28;20050;-80
2024/03/06 11:42:54;;;;;;;0.30;0.30;;;;;;;;;;5092140;28;20047;-81
2024/03/06 11:45:22;;;;;;;0.10;0.10;;;;;;;;;;5112711;28;20070;-81
2024/03/06 11:48:01;;;;;;;0.20;0.20;;;;;;;;;;5112302;28;20494;-83
2024/03/06 11:50:31;;;;;;;0.30;0.25;;;;;;;;;;5112315;28;20036;-83
2024/03/06 11:52:57;;;;;;;0.20;0.20;;;;;;;;;;5108615;28;20135;-83
2024/03/06 11:55:26;;;;;;;0.10;0.10;;;;;;;;;;5089297;28;20040;-83
2024/03/06 11:57:55;;;;;;;1.10;0.30;;;;;;;;;;5112185;28;20047;-83
2024/03/06 12:00:23;;;;;;;0.95;0.30;;;;;;;;;;5095470;28;20037;-83
2024/03/06 12:02:49;;;;;;;1.25;0.73;;;;;;;;;;5094904;28;20055;-83
2024/03/06 12:05:15;;;;;;;0.13;0.13;;;;;;;;;;5095112;28;20032;-83
2024/03/06 12:07:47;;;;;;;0.15;0.15;;;;;;;;;;5095323;28;20376;-84
2024/03/06 12:10:14;;;;;;;0.10;0.10;;;;;;;;;;5094819;28;20204;-84
2024/03/06 12:12:41;;;;;;;0.30;0.30;;;;;;;;;;5094952;28;20547;-83
2024/03/06 12:15:11;;;;;;;0.10;0.10;;;;;;;;;;5111875;28;20360;-81
2024/03/06 12:17:47;;;;;;;0.17;0.17;;;;;;;;;;5112975;28;20122;-81
2024/03/06 12:20:16;;;;;;;0.10;0.10;;;;;;;;;;5094805;28;20070;-81
2024/03/06 12:22:51;;;;;;;0.55;0.55;;;;;;;;;;5095254;28;20393;-84
2024/03/06 12:25:24;;;;;;;0.57;0.40;;;;;;;;;;5094726;28;20035;-82
2024/03/06 12:27:50;;;;;;;;;;;;;;;;;;5095290;28;20042;-80
2024/03/06 12:30:20;;;;;;;0.10;0.10;;;;;;;;;;5094526;28;19919;-84
2024/03/06 12:32:56;;;;;;;0.35;0.35;;;;;;;;;;5078132;28;20070;-82
2024/03/06 12:35:26;;;;;;;0.17;0.10;;;;;;;;;;5094684;28;20162;-82
2024/03/06 12:37:52;;;;;;;0.10;0.10;;;;;;;;;;5111720;28;20036;-82
2024/03/06 12:40:18;;;;;;;0.63;0.63;;;;;;;;;;5094638;28;20096;-82
2024/03/06 12:42:46;;;;;;;0.10;0.10;;;;;;;;;;5094600;28;20043;-82
2024/03/06 12:45:16;;;;;;;0.40;0.40;;;;;;;;;;5094453;28;20040;-81
2024/03/06 12:47:43;;;;;;;0.10;0.10;;;;;;;;;;5111441;28;20043;-83
2024/03/06 12:50:10;;;;;;;0.20;0.20;;;;;;;;;;5111265;28;20521;-82
2024/03/06 12:52:36;;;;;;;0.73;0.55;;;;;;;;;;5094635;28;20040;-82
2024/03/06 12:55:04;;;;;;;0.20;0.20;;;;;;;;;;5094462;28;20383;-86
2024/03/06 12:57:31;;;;;;;0.40;0.40;;;;;;;;;;5077506;28;20038;-83
2024/03/06 12:59:57;;;;;;;0.20;0.20;;;;;;;;;;5094317;28;20032;-83
2024/03/06 13:02:23;;;;;;;0.13;0.13;;;;;;;;;;5094250;28;20044;-83
2024/03/06 13:04:49;;;;;;;0.45;0.30;;;;;;;;;;5116625;28;20046;-84
2024/03/06 13:07:15;;;;;;;0.85;0.85;;;;;;;;;;5115379;28;20071;-86
2024/03/06 13:09:41;;;;;;;0.45;0.45;;;;;;;;;;5115388;28;20039;-84
2024/03/06 13:12:07;;;;;;;0.30;0.17;;;;;;;;;;5081338;28;20044;-86
2024/03/06 13:14:33;;;;;;;0.20;0.20;;;;;;;;;;5098359;28;20065;-83
2024/03/06 13:17:03;;;;;;;0.30;0.30;;;;;;;;;;5115308;28;20036;-85
2024/03/06 13:19:29;;;;;;;0.55;0.55;;;;;;;;;;5098329;28;20032;-85
2024/03/06 13:21:55;;;;;;;0.32;0.32;;;;;;;;;;5098129;28;20051;-85
2024/03/06 13:24:21;;;;;;;0.20;0.20;;;;;;;;;;5098387;28;20421;-86
2024/03/06 13:26:47;;;;;;;0.30;0.30;;;;;;;;;;5081068;28;20043;-83
2024/03/06 13:29:13;;;;;;;0.30;0.30;;;;;;;;;;5114953;28;20111;-85
2024/03/06 13:31:39;;;;;;;0.20;0.20;;;;;;;;;;5114796;28;20036;-84
2024/03/06 13:34:05;;;;;;;0.15;0.15;;;;;;;;;;5115159;28;20039;-84
2024/03/06 13:36:32;;;;;;;0.10;0.10;;;;;;;;;;5097980;28;20043;-84
2024/03/06 13:38:58;;;;;;;0.10;0.10;;;;;;;;;;5115097;28;20118;-83
2024/03/06 13:41:24;;;;;;;0.20;0.20;;;;;;;;;;5097801;28;20189;-85
2024/03/06 13:43:50;;;;;;;0.20;0.20;;;;;;;;;;5114655;28;20039;-85
2024/03/06 13:46:16;;;;;;;0.22;0.22;;;;;;;;;;5114579;28;20071;-85
2024/03/06 13:48:42;;;;;;;0.10;0.10;;;;;;;;;;5114561;28;20044;-84
2024/03/06 13:51:08;;;;;;;0.10;0.10;;;;;;;;;;5114348;28;20043;-83
2024/03/06 13:53:34;;;;;;;0.30;0.30;;;;;;;;;;5114437;28;20437;-85
2024/03/06 13:56:00;;;;;;;0.45;0.45;;;;;;;;;;5080607;28;20074;-85
2024/03/06 13:58:26;;;;;;;0.50;0.50;;;;;;;;;;5097348;28;20039;-84
2024/03/06 14:00:52;;;;;;;0.17;0.17;;;;;;;;;;5097569;28;20043;-83
2024/03/06 14:03:18;;;;;;;1.10;0.85;;;;;;;;;;5080393;28;20056;-83
2024/03/06 14:05:44;;;;;;;0.32;0.32;;;;;;;;;;5114300;28;20082;-83
2024/03/06 14:08:11;;;;;;;0.20;0.20;;;;;;;;;;5114153;28;20390;-82
2024/03/06 14:10:39;;;;;;;0.73;0.73;;;;;;;;;;5096880;28;20036;-83
2024/03/06 14:13:06;;;;;;;0.32;0.32;;;;;;;;;;5115447;28;20115;-83
2024/03/06 14:15:32;;;;;;;0.20;0.20;;;;;;;;;;5079945;28;20035;-82
2024/03/06 14:17:58;;;;;;;0.20;0.20;;;;;;;;;;5115530;28;20043;-83
2024/03/06 14:20:24;;;;;;;0.43;0.43;;;;;;;;;;5080437;28;20040;-83
2024/03/06 14:22:51;;;;;;;0.10;0.10;;;;;;;;;;5096881;28;20632;-83
2024/03/06 14:25:17;;;;;;;1.17;0.60;;;;;;;;;;5096801;28;20169;-83
2024/03/06 14:27:43;;;;;;;0.35;0.35;;;;;;;;;;5113861;28;20050;-84
2024/03/06 14:30:11;;;;;;;0.17;0.17;;;;;;;;;;5096666;28;20040;-82
2024/03/06 14:32:37;;;;;;;0.20;0.20;;;;;;;;;;5096869;28;20120;-83
2024/03/06 14:35:03;;;;;;;0.60;0.60;;;;;;;;;;5096891;28;20039;-84
2024/03/06 14:37:30;;;;;;;0.20;0.20;;;;;;;;;;5096876;28;20076;-83
2024/03/06 14:39:56;;;;;;;0.10;0.10;;;;;;;;;;5079832;28;20039;-83
2024/03/06 14:42:23;;;;;;;0.22;0.22;;;;;;;;;;5113870;28;20036;-83